sensor_id;sensor_type;location;lat;lon;timestamp;pressure;altitude;pressure_sealevel;temperature;humidity
59154;BME280;44935;48.944;9.418;2023-07-24T00:02:22;98047.50;;;19.41;53.40
59154;BME280;44935;48.944;9.418;2023-07-24T00:04:49;98078.67;;;19.82;51.23
59154;BME280;44935;48.944;9.418;2023-07-24T00:07:16;98117.83;;;20.11;51.27
59154;BME280;44935;48.944;9.418;2023-07-24T00:09:43;98042.98;;;17.22;58.69
59154;BME280;44935;48.944;9.418;2023-07-24T00:12:11;98013.27;;;19.44;53.29
59154;BME280;44935;48.944;9.418;2023-07-24T00:14:37;98016.69;;;18.79;54.02
59154;BME280;44935;48.944;9.418;2023-07-24T00:17:05;98029.50;;;19.01;52.68
59154;BME280;44935;48.944;9.418;2023-07-24T00:19:32;98017.75;;;19.93;51.03
59154;BME280;44935;48.944;9.418;2023-07-24T00:21:59;97997.08;;;19.11;53.61
59154;BME280;44935;48.944;9.418;2023-07-24T00:24:27;97983.40;;;19.76;52.25
59154;BME280;44935;48.944;9.418;2023-07-24T00:26:53;98000.20;;;20.84;48.99
59154;BME280;44935;48.944;9.418;2023-07-24T00:29:21;98004.90;;;20.91;48.75
59154;BME280;44935;48.944;9.418;2023-07-24T00:31:48;98010.13;;;20.88;49.26
59154;BME280;44935;48.944;9.418;2023-07-24T00:34:15;98006.66;;;20.99;49.18
59154;BME280;44935;48.944;9.418;2023-07-24T00:36:42;97976.67;;;18.45;53.49
59154;BME280;44935;48.944;9.418;2023-07-24T00:39:09;97973.69;;;19.94;51.30
59154;BME280;44935;48.944;9.418;2023-07-24T00:41:36;97980.79;;;20.99;48.63
59154;BME280;44935;48.944;9.418;2023-07-24T00:44:03;97974.79;;;20.35;49.69
59154;BME280;44935;48.944;9.418;2023-07-24T00:46:31;97976.71;;;20.15;49.62
59154;BME280;44935;48.944;9.418;2023-07-24T00:48:59;97975.12;;;20.81;48.68
59154;BME280;44935;48.944;9.418;2023-07-24T00:51:27;97963.99;;;20.89;47.92
59154;BME280;44935;48.944;9.418;2023-07-24T00:53:54;97964.08;;;19.92;49.54
59154;BME280;44935;48.944;9.418;2023-07-24T00:56:22;97945.35;;;18.93;53.70
59154;BME280;44935;48.944;9.418;2023-07-24T00:58:49;97951.67;;;20.63;48.57
59154;BME280;44935;48.944;9.418;2023-07-24T01:01:17;97953.45;;;20.69;48.51
59154;BME280;44935;48.944;9.418;2023-07-24T01:03:44;97953.74;;;21.01;48.32
59154;BME280;44935;48.944;9.418;2023-07-24T01:06:11;97950.23;;;21.26;47.84
59154;BME280;44935;48.944;9.418;2023-07-24T01:08:38;97937.75;;;21.09;47.63
59154;BME280;44935;48.944;9.418;2023-07-24T01:11:12;97931.79;;;21.61;47.29
59154;BME280;44935;48.944;9.418;2023-07-24T01:13:46;97932.18;;;20.35;48.25
59154;BME280;44935;48.944;9.418;2023-07-24T01:16:20;97924.68;;;21.23;47.53
59154;BME280;44935;48.944;9.418;2023-07-24T01:18:49;97924.69;;;21.23;47.21
59154;BME280;44935;48.944;9.418;2023-07-24T01:21:23;97923.24;;;20.82;48.42
59154;BME280;44935;48.944;9.418;2023-07-24T01:24:02;97915.84;;;21.38;48.01
59154;BME280;44935;48.944;9.418;2023-07-24T01:26:30;97914.32;;;20.68;48.51
59154;BME280;44935;48.944;9.418;2023-07-24T01:28:57;97908.45;;;20.64;49.57
59154;BME280;44935;48.944;9.418;2023-07-24T01:31:24;97906.56;;;20.90;48.67
59154;BME280;44935;48.944;9.418;2023-07-24T01:33:50;97902.25;;;20.87;48.09
59154;BME280;44935;48.944;9.418;2023-07-24T01:36:18;97899.27;;;21.34;47.25
59154;BME280;44935;48.944;9.418;2023-07-24T01:38:47;97898.83;;;21.31;47.06
59154;BME280;44935;48.944;9.418;2023-07-24T01:41:15;97897.15;;;21.35;46.99
59154;BME280;44935;48.944;9.418;2023-07-24T01:43:43;97897.66;;;21.22;46.79
59154;BME280;44935;48.944;9.418;2023-07-24T01:46:10;97897.13;;;20.79;47.62
59154;BME280;44935;48.944;9.418;2023-07-24T01:48:37;97900.99;;;21.07;48.27
59154;BME280;44935;48.944;9.418;2023-07-24T01:51:04;97904.79;;;20.84;47.94
59154;BME280;44935;48.944;9.418;2023-07-24T01:53:31;97911.35;;;20.71;48.15
59154;BME280;44935;48.944;9.418;2023-07-24T01:55:58;97915.88;;;20.82;48.28
59154;BME280;44935;48.944;9.418;2023-07-24T01:58:26;97918.38;;;20.46;48.61
59154;BME280;44935;48.944;9.418;2023-07-24T02:00:55;97920.20;;;20.84;47.93
59154;BME280;44935;48.944;9.418;2023-07-24T02:03:22;97918.71;;;20.83;47.86
59154;BME280;44935;48.944;9.418;2023-07-24T02:05:49;97914.46;;;21.02;47.55
59154;BME280;44935;48.944;9.418;2023-07-24T02:08:17;97911.79;;;20.86;47.34
59154;BME280;44935;48.944;9.418;2023-07-24T02:10:43;97910.26;;;20.91;47.80
59154;BME280;44935;48.944;9.418;2023-07-24T02:13:10;97908.69;;;20.91;47.19
59154;BME280;44935;48.944;9.418;2023-07-24T02:15:37;97905.13;;;21.41;46.95
59154;BME280;44935;48.944;9.418;2023-07-24T02:18:04;97908.81;;;21.07;47.43
59154;BME280;44935;48.944;9.418;2023-07-24T02:20:31;97904.30;;;20.97;47.18
59154;BME280;44935;48.944;9.418;2023-07-24T02:22:59;97904.87;;;20.73;47.52
59154;BME280;44935;48.944;9.418;2023-07-24T02:25:27;97905.25;;;20.46;48.08
59154;BME280;44935;48.944;9.418;2023-07-24T02:27:53;97905.03;;;20.94;47.82
59154;BME280;44935;48.944;9.418;2023-07-24T02:30:20;97903.90;;;20.56;48.49
59154;BME280;44935;48.944;9.418;2023-07-24T02:32:47;97903.17;;;21.29;47.33
59154;BME280;44935;48.944;9.418;2023-07-24T02:35:14;97908.01;;;20.90;47.88
59154;BME280;44935;48.944;9.418;2023-07-24T02:37:41;97910.43;;;20.86;47.88
59154;BME280;44935;48.944;9.418;2023-07-24T02:40:09;97899.67;;;20.80;47.74
59154;BME280;44935;48.944;9.418;2023-07-24T02:42:37;97901.33;;;20.73;48.76
59154;BME280;44935;48.944;9.418;2023-07-24T02:45:04;97906.40;;;20.57;48.55
59154;BME280;44935;48.944;9.418;2023-07-24T02:47:32;97911.39;;;20.69;48.24
59154;BME280;44935;48.944;9.418;2023-07-24T02:49:59;97899.85;;;19.95;50.11
59154;BME280;44935;48.944;9.418;2023-07-24T02:52:26;97888.55;;;20.57;48.70
59154;BME280;44935;48.944;9.418;2023-07-24T02:54:53;97891.83;;;20.49;49.01
59154;BME280;44935;48.944;9.418;2023-07-24T02:57:20;97881.32;;;20.75;48.34
59154;BME280;44935;48.944;9.418;2023-07-24T02:59:52;97870.44;;;20.41;48.94
59154;BME280;44935;48.944;9.418;2023-07-24T03:02:19;97866.26;;;20.26;49.29
59154;BME280;44935;48.944;9.418;2023-07-24T03:04:46;97867.98;;;20.40;49.41
59154;BME280;44935;48.944;9.418;2023-07-24T03:07:13;97870.89;;;20.45;48.69
59154;BME280;44935;48.944;9.418;2023-07-24T03:09:40;97866.01;;;20.00;49.17
59154;BME280;44935;48.944;9.418;2023-07-24T03:12:07;97856.42;;;20.58;48.50
59154;BME280;44935;48.944;9.418;2023-07-24T03:14:35;97858.18;;;20.39;48.46
59154;BME280;44935;48.944;9.418;2023-07-24T03:17:02;97845.92;;;18.34;53.07
59154;BME280;44935;48.944;9.418;2023-07-24T03:19:30;97845.55;;;19.65;50.87
59154;BME280;44935;48.944;9.418;2023-07-24T03:21:57;97846.54;;;20.04;49.46
59154;BME280;44935;48.944;9.418;2023-07-24T03:24:24;97843.67;;;19.98;49.56
59154;BME280;44935;48.944;9.418;2023-07-24T03:26:51;97840.66;;;20.47;48.61
59154;BME280;44935;48.944;9.418;2023-07-24T03:29:18;97837.75;;;20.66;48.26
59154;BME280;44935;48.944;9.418;2023-07-24T03:31:45;97830.06;;;20.77;47.78
59154;BME280;44935;48.944;9.418;2023-07-24T03:34:11;97818.04;;;20.91;47.51
59154;BME280;44935;48.944;9.418;2023-07-24T03:36:38;97811.87;;;20.49;47.44
59154;BME280;44935;48.944;9.418;2023-07-24T03:39:05;97820.84;;;20.86;47.81
59154;BME280;44935;48.944;9.418;2023-07-24T03:41:32;97831.83;;;20.45;47.85
59154;BME280;44935;48.944;9.418;2023-07-24T03:43:59;97829.33;;;20.41;48.15
59154;BME280;44935;48.944;9.418;2023-07-24T03:46:27;97832.94;;;20.13;48.81
59154;BME280;44935;48.944;9.418;2023-07-24T03:48:54;97840.53;;;19.71;49.39
59154;BME280;44935;48.944;9.418;2023-07-24T03:51:21;97842.93;;;19.25;51.45
59154;BME280;44935;48.944;9.418;2023-07-24T03:53:48;97844.48;;;19.31;51.77
59154;BME280;44935;48.944;9.418;2023-07-24T03:56:14;97838.39;;;19.15;51.25
59154;BME280;44935;48.944;9.418;2023-07-24T03:58:41;97838.05;;;19.91;50.27
59154;BME280;44935;48.944;9.418;2023-07-24T04:01:09;97840.45;;;19.44;50.07
59154;BME280;44935;48.944;9.418;2023-07-24T04:03:36;97835.29;;;20.17;49.98
59154;BME280;44935;48.944;9.418;2023-07-24T04:06:04;97838.15;;;20.25;49.39
59154;BME280;44935;48.944;9.418;2023-07-24T04:08:31;97842.24;;;19.55;50.19
59154;BME280;44935;48.944;9.418;2023-07-24T04:10:58;97844.73;;;19.45;50.85
59154;BME280;44935;48.944;9.418;2023-07-24T04:13:25;97837.46;;;19.32;50.69
59154;BME280;44935;48.944;9.418;2023-07-24T04:15:52;97830.56;;;19.26;51.99
59154;BME280;44935;48.944;9.418;2023-07-24T04:18:19;97835.14;;;20.10;50.25
59154;BME280;44935;48.944;9.418;2023-07-24T04:20:46;97835.12;;;20.16;49.96
59154;BME280;44935;48.944;9.418;2023-07-24T04:23:13;97830.10;;;20.19;49.61
59154;BME280;44935;48.944;9.418;2023-07-24T04:25:40;97826.42;;;20.23;48.95
59154;BME280;44935;48.944;9.418;2023-07-24T04:28:07;97824.62;;;20.13;49.65
59154;BME280;44935;48.944;9.418;2023-07-24T04:30:34;97823.28;;;20.30;49.43
59154;BME280;44935;48.944;9.418;2023-07-24T04:33:02;97820.68;;;19.50;50.85
59154;BME280;44935;48.944;9.418;2023-07-24T04:35:30;97806.71;;;20.81;48.96
59154;BME280;44935;48.944;9.418;2023-07-24T04:37:57;97801.53;;;20.74;48.74
59154;BME280;44935;48.944;9.418;2023-07-24T04:40:24;97799.46;;;20.36;49.92
59154;BME280;44935;48.944;9.418;2023-07-24T04:42:51;97791.24;;;20.59;49.37
59154;BME280;44935;48.944;9.418;2023-07-24T04:45:18;97796.04;;;20.30;49.26
59154;BME280;44935;48.944;9.418;2023-07-24T04:47:45;97791.42;;;20.66;49.38
59154;BME280;44935;48.944;9.418;2023-07-24T04:50:12;97789.56;;;19.13;52.14
59154;BME280;44935;48.944;9.418;2023-07-24T04:52:39;97778.21;;;20.84;50.06
59154;BME280;44935;48.944;9.418;2023-07-24T04:55:06;97786.27;;;20.15;51.20
59154;BME280;44935;48.944;9.418;2023-07-24T04:57:33;97781.41;;;20.29;50.53
59154;BME280;44935;48.944;9.418;2023-07-24T05:00:00;97784.43;;;21.14;49.54
59154;BME280;44935;48.944;9.418;2023-07-24T05:02:27;97791.27;;;20.65;50.22
59154;BME280;44935;48.944;9.418;2023-07-24T05:04:54;97790.04;;;20.86;50.92
59154;BME280;44935;48.944;9.418;2023-07-24T05:07:21;97781.19;;;20.90;49.86
59154;BME280;44935;48.944;9.418;2023-07-24T05:09:48;97776.93;;;21.07;49.60
59154;BME280;44935;48.944;9.418;2023-07-24T05:12:15;97770.96;;;20.44;50.91
59154;BME280;44935;48.944;9.418;2023-07-24T05:14:42;97775.46;;;21.18;48.87
59154;BME280;44935;48.944;9.418;2023-07-24T05:17:09;97769.66;;;21.22;48.81
59154;BME280;44935;48.944;9.418;2023-07-24T05:19:36;97764.56;;;21.00;49.33
59154;BME280;44935;48.944;9.418;2023-07-24T05:22:03;97767.18;;;21.09;49.12
59154;BME280;44935;48.944;9.418;2023-07-24T05:24:30;97763.37;;;21.40;48.96
59154;BME280;44935;48.944;9.418;2023-07-24T05:26:57;97764.21;;;21.26;49.03
59154;BME280;44935;48.944;9.418;2023-07-24T05:29:24;97777.61;;;20.62;51.22
59154;BME280;44935;48.944;9.418;2023-07-24T05:31:51;97781.59;;;20.60;51.12
59154;BME280;44935;48.944;9.418;2023-07-24T05:34:19;97779.10;;;20.87;50.43
59154;BME280;44935;48.944;9.418;2023-07-24T05:36:47;97769.76;;;21.51;49.58
59154;BME280;44935;48.944;9.418;2023-07-24T05:39:14;97768.34;;;21.58;49.17
59154;BME280;44935;48.944;9.418;2023-07-24T05:41:41;97780.11;;;21.76;48.56
59154;BME280;44935;48.944;9.418;2023-07-24T05:44:08;97790.64;;;21.84;47.97
59154;BME280;44935;48.944;9.418;2023-07-24T05:46:35;97808.31;;;21.81;48.21
59154;BME280;44935;48.944;9.418;2023-07-24T05:49:03;97809.44;;;21.91;47.77
59154;BME280;44935;48.944;9.418;2023-07-24T05:51:30;97808.48;;;21.89;47.60
59154;BME280;44935;48.944;9.418;2023-07-24T05:53:57;97808.70;;;21.60;48.72
59154;BME280;44935;48.944;9.418;2023-07-24T05:56:23;97811.92;;;21.63;50.13
59154;BME280;44935;48.944;9.418;2023-07-24T05:58:50;97818.90;;;21.23;51.38
59154;BME280;44935;48.944;9.418;2023-07-24T06:01:18;97825.83;;;21.06;50.93
59154;BME280;44935;48.944;9.418;2023-07-24T06:03:50;97828.92;;;21.27;50.58
59154;BME280;44935;48.944;9.418;2023-07-24T06:06:17;97834.26;;;21.49;51.03
59154;BME280;44935;48.944;9.418;2023-07-24T06:08:44;97838.23;;;21.54;50.96
59154;BME280;44935;48.944;9.418;2023-07-24T06:11:11;97838.85;;;21.54;50.02
59154;BME280;44935;48.944;9.418;2023-07-24T06:13:38;97832.74;;;20.78;51.20
59154;BME280;44935;48.944;9.418;2023-07-24T06:16:05;97837.64;;;21.64;49.22
59154;BME280;44935;48.944;9.418;2023-07-24T06:18:32;97841.59;;;21.84;49.42
59154;BME280;44935;48.944;9.418;2023-07-24T06:20:59;97842.27;;;21.86;49.61
59154;BME280;44935;48.944;9.418;2023-07-24T06:23:26;97842.79;;;22.02;49.46
59154;BME280;44935;48.944;9.418;2023-07-24T06:25:53;97836.76;;;21.89;49.72
59154;BME280;44935;48.944;9.418;2023-07-24T06:28:20;97829.68;;;22.55;48.80
59154;BME280;44935;48.944;9.418;2023-07-24T06:30:48;97827.50;;;22.45;48.43
59154;BME280;44935;48.944;9.418;2023-07-24T06:33:18;97819.96;;;22.38;48.31
59154;BME280;44935;48.944;9.418;2023-07-24T06:35:45;97813.63;;;22.05;48.47
59154;BME280;44935;48.944;9.418;2023-07-24T06:38:11;97815.01;;;22.24;48.81
59154;BME280;44935;48.944;9.418;2023-07-24T06:40:38;97809.67;;;22.08;49.12
59154;BME280;44935;48.944;9.418;2023-07-24T06:43:05;97805.90;;;22.00;48.29
59154;BME280;44935;48.944;9.418;2023-07-24T06:45:32;97805.12;;;21.73;49.20
59154;BME280;44935;48.944;9.418;2023-07-24T06:47:59;97795.58;;;22.18;48.26
59154;BME280;44935;48.944;9.418;2023-07-24T06:50:26;97797.52;;;22.31;47.79
59154;BME280;44935;48.944;9.418;2023-07-24T06:52:53;97792.94;;;22.80;47.45
59154;BME280;44935;48.944;9.418;2023-07-24T06:55:20;97781.54;;;21.92;48.94
59154;BME280;44935;48.944;9.418;2023-07-24T06:57:46;97784.17;;;22.53;48.96
59154;BME280;44935;48.944;9.418;2023-07-24T07:00:14;97786.26;;;22.33;48.81
59154;BME280;44935;48.944;9.418;2023-07-24T07:02:41;97784.13;;;22.56;48.35
59154;BME280;44935;48.944;9.418;2023-07-24T07:05:08;97783.49;;;22.31;48.80
59154;BME280;44935;48.944;9.418;2023-07-24T07:07:35;97776.18;;;22.98;48.22
59154;BME280;44935;48.944;9.418;2023-07-24T07:10:02;97783.24;;;22.69;48.20
59154;BME280;44935;48.944;9.418;2023-07-24T07:12:30;97784.17;;;21.82;49.73
59154;BME280;44935;48.944;9.418;2023-07-24T07:14:56;97783.56;;;21.85;50.29
59154;BME280;44935;48.944;9.418;2023-07-24T07:17:24;97786.98;;;21.33;51.62
59154;BME280;44935;48.944;9.418;2023-07-24T07:19:51;97779.16;;;22.09;49.61
59154;BME280;44935;48.944;9.418;2023-07-24T07:22:18;97773.66;;;20.49;54.32
59154;BME280;44935;48.944;9.418;2023-07-24T07:24:45;97788.26;;;21.83;51.22
59154;BME280;44935;48.944;9.418;2023-07-24T07:27:12;97802.13;;;21.83;51.17
59154;BME280;44935;48.944;9.418;2023-07-24T07:29:39;97796.61;;;21.11;51.89
59154;BME280;44935;48.944;9.418;2023-07-24T07:32:06;97797.23;;;22.20;49.71
59154;BME280;44935;48.944;9.418;2023-07-24T07:34:33;97803.21;;;22.56;49.49
59154;BME280;44935;48.944;9.418;2023-07-24T07:37:00;97809.02;;;22.77;48.94
59154;BME280;44935;48.944;9.418;2023-07-24T07:39:27;97818.31;;;22.71;50.46
59154;BME280;44935;48.944;9.418;2023-07-24T07:41:54;97814.69;;;22.40;50.40
59154;BME280;44935;48.944;9.418;2023-07-24T07:44:21;97812.37;;;22.91;49.28
59154;BME280;44935;48.944;9.418;2023-07-24T07:46:48;97816.49;;;22.81;48.82
59154;BME280;44935;48.944;9.418;2023-07-24T07:49:15;97828.63;;;22.99;50.64
59154;BME280;44935;48.944;9.418;2023-07-24T07:51:42;97836.74;;;22.77;50.15
59154;BME280;44935;48.944;9.418;2023-07-24T07:54:08;97840.39;;;23.17;49.02
59154;BME280;44935;48.944;9.418;2023-07-24T07:56:35;97844.30;;;23.07;49.47
59154;BME280;44935;48.944;9.418;2023-07-24T07:59:02;97840.19;;;22.57;49.82
59154;BME280;44935;48.944;9.418;2023-07-24T08:01:29;97840.82;;;23.11;48.88
59154;BME280;44935;48.944;9.418;2023-07-24T08:03:56;97840.95;;;23.05;48.74
59154;BME280;44935;48.944;9.418;2023-07-24T08:06:23;97851.08;;;23.42;48.11
59154;BME280;44935;48.944;9.418;2023-07-24T08:08:50;97859.50;;;23.71;48.46
59154;BME280;44935;48.944;9.418;2023-07-24T08:11:17;97861.65;;;23.87;48.31
59154;BME280;44935;48.944;9.418;2023-07-24T08:13:44;97871.97;;;23.86;48.91
59154;BME280;44935;48.944;9.418;2023-07-24T08:16:15;97875.08;;;23.46;48.88
59154;BME280;44935;48.944;9.418;2023-07-24T08:18:41;97883.45;;;23.07;50.07
59154;BME280;44935;48.944;9.418;2023-07-24T08:21:08;97889.36;;;23.11;50.38
59154;BME280;44935;48.944;9.418;2023-07-24T08:23:35;97890.65;;;22.82;51.44
59154;BME280;44935;48.944;9.418;2023-07-24T08:26:02;97891.78;;;23.36;50.19
59154;BME280;44935;48.944;9.418;2023-07-24T08:28:29;97889.58;;;22.85;50.61
59154;BME280;44935;48.944;9.418;2023-07-24T08:30:57;97885.40;;;22.25;51.07
59154;BME280;44935;48.944;9.418;2023-07-24T08:33:24;97875.24;;;22.56;50.87
59154;BME280;44935;48.944;9.418;2023-07-24T08:35:59;97868.51;;;22.65;49.42
59154;BME280;44935;48.944;9.418;2023-07-24T08:38:26;97862.51;;;22.99;48.86
59154;BME280;44935;48.944;9.418;2023-07-24T08:41:01;97862.04;;;22.72;48.61
59154;BME280;44935;48.944;9.418;2023-07-24T08:43:29;97853.89;;;22.76;49.71
59154;BME280;44935;48.944;9.418;2023-07-24T08:45:57;97848.26;;;22.13;50.28
59154;BME280;44935;48.944;9.418;2023-07-24T08:48:26;97827.75;;;21.33;51.91
59154;BME280;44935;48.944;9.418;2023-07-24T08:50:53;97819.75;;;21.68;51.48
59154;BME280;44935;48.944;9.418;2023-07-24T08:53:22;97824.88;;;22.61;49.81
59154;BME280;44935;48.944;9.418;2023-07-24T08:55:51;97806.71;;;21.33;51.54
59154;BME280;44935;48.944;9.418;2023-07-24T08:58:19;97799.69;;;22.00;51.39
59154;BME280;44935;48.944;9.418;2023-07-24T09:00:47;97790.10;;;22.38;50.75
59154;BME280;44935;48.944;9.418;2023-07-24T09:03:14;97787.62;;;22.64;51.06
59154;BME280;44935;48.944;9.418;2023-07-24T09:05:41;97778.25;;;22.57;50.92
59154;BME280;44935;48.944;9.418;2023-07-24T09:08:08;97769.62;;;22.73;50.33
59154;BME280;44935;48.944;9.418;2023-07-24T09:10:35;97757.46;;;21.80;52.61
59154;BME280;44935;48.944;9.418;2023-07-24T09:13:02;97756.55;;;22.87;50.30
59154;BME280;44935;48.944;9.418;2023-07-24T09:15:29;97768.20;;;23.19;49.00
59154;BME280;44935;48.944;9.418;2023-07-24T09:17:56;97786.72;;;23.49;49.16
59154;BME280;44935;48.944;9.418;2023-07-24T09:20:23;97782.42;;;22.08;51.77
59154;BME280;44935;48.944;9.418;2023-07-24T09:22:50;97789.03;;;23.21;50.00
59154;BME280;44935;48.944;9.418;2023-07-24T09:25:16;97783.11;;;22.33;51.14
59154;BME280;44935;48.944;9.418;2023-07-24T09:27:45;97774.26;;;23.50;49.66
59154;BME280;44935;48.944;9.418;2023-07-24T09:30:13;97775.37;;;23.68;49.16
59154;BME280;44935;48.944;9.418;2023-07-24T09:32:41;97777.13;;;23.21;51.27
59154;BME280;44935;48.944;9.418;2023-07-24T09:35:16;97782.15;;;23.40;51.95
59154;BME280;44935;48.944;9.418;2023-07-24T09:37:43;97798.01;;;23.94;50.85
59154;BME280;44935;48.944;9.418;2023-07-24T09:40:13;97799.04;;;23.96;50.34
59154;BME280;44935;48.944;9.418;2023-07-24T09:42:41;97799.34;;;24.13;48.65
59154;BME280;44935;48.944;9.418;2023-07-24T09:45:09;97794.53;;;24.24;47.80
59154;BME280;44935;48.944;9.418;2023-07-24T09:47:36;97791.21;;;24.12;48.38
59154;BME280;44935;48.944;9.418;2023-07-24T09:50:06;97798.55;;;23.90;48.82
59154;BME280;44935;48.944;9.418;2023-07-24T09:52:37;97800.55;;;24.12;49.36
59154;BME280;44935;48.944;9.418;2023-07-24T09:55:15;97796.99;;;23.73;49.97
59154;BME280;44935;48.944;9.418;2023-07-24T09:57:46;97794.89;;;24.11;49.85
59154;BME280;44935;48.944;9.418;2023-07-24T10:00:14;97801.54;;;23.96;49.37
59154;BME280;44935;48.944;9.418;2023-07-24T10:02:42;97811.65;;;23.97;49.39
59154;BME280;44935;48.944;9.418;2023-07-24T10:05:09;97823.50;;;23.60;49.55
59154;BME280;44935;48.944;9.418;2023-07-24T10:07:37;97832.10;;;23.56;49.59
59154;BME280;44935;48.944;9.418;2023-07-24T10:10:06;97826.01;;;23.71;49.44
59154;BME280;44935;48.944;9.418;2023-07-24T10:12:34;97828.79;;;23.90;49.00
59154;BME280;44935;48.944;9.418;2023-07-24T10:15:03;97837.59;;;24.32;48.99
59154;BME280;44935;48.944;9.418;2023-07-24T10:17:39;97839.37;;;23.97;48.92
59154;BME280;44935;48.944;9.418;2023-07-24T10:20:09;97843.68;;;23.84;48.96
59154;BME280;44935;48.944;9.418;2023-07-24T10:22:40;97852.46;;;23.55;49.11
59154;BME280;44935;48.944;9.418;2023-07-24T10:25:09;97856.47;;;23.67;49.16
59154;BME280;44935;48.944;9.418;2023-07-24T10:27:42;97856.64;;;23.66;49.31
59154;BME280;44935;48.944;9.418;2023-07-24T10:30:10;97864.57;;;23.88;48.96
59154;BME280;44935;48.944;9.418;2023-07-24T10:32:45;97872.30;;;23.50;49.66
59154;BME280;44935;48.944;9.418;2023-07-24T10:35:12;97874.35;;;23.28;50.08
59154;BME280;44935;48.944;9.418;2023-07-24T10:37:40;97875.37;;;23.44;49.66
59154;BME280;44935;48.944;9.418;2023-07-24T10:40:19;97865.49;;;23.61;48.96
59154;BME280;44935;48.944;9.418;2023-07-24T10:42:46;97862.87;;;23.33;49.55
59154;BME280;44935;48.944;9.418;2023-07-24T10:45:13;97864.02;;;23.95;48.80
59154;BME280;44935;48.944;9.418;2023-07-24T10:47:40;97862.72;;;24.03;48.33
59154;BME280;44935;48.944;9.418;2023-07-24T10:50:08;97864.17;;;23.60;48.70
59154;BME280;44935;48.944;9.418;2023-07-24T10:52:35;97873.72;;;23.72;48.51
59154;BME280;44935;48.944;9.418;2023-07-24T10:55:03;97883.12;;;23.46;48.66
59154;BME280;44935;48.944;9.418;2023-07-24T10:57:31;97883.27;;;23.57;49.85
59154;BME280;44935;48.944;9.418;2023-07-24T10:59:59;97884.66;;;23.36;49.70
59154;BME280;44935;48.944;9.418;2023-07-24T11:02:26;97886.60;;;23.37;49.46
59154;BME280;44935;48.944;9.418;2023-07-24T11:04:54;97881.98;;;22.96;50.13
59154;BME280;44935;48.944;9.418;2023-07-24T11:07:21;97887.50;;;23.34;50.10
59154;BME280;44935;48.944;9.418;2023-07-24T11:09:48;97891.11;;;23.37;50.52
59154;BME280;44935;48.944;9.418;2023-07-24T11:12:15;97894.17;;;23.24;50.71
59154;BME280;44935;48.944;9.418;2023-07-24T11:14:52;97891.87;;;22.93;51.39
59154;BME280;44935;48.944;9.418;2023-07-24T11:17:19;97883.90;;;22.42;52.29
59154;BME280;44935;48.944;9.418;2023-07-24T11:19:46;97881.20;;;21.95;53.25
59154;BME280;44935;48.944;9.418;2023-07-24T11:22:14;97863.94;;;21.91;53.41
59154;BME280;44935;48.944;9.418;2023-07-24T11:24:44;97850.20;;;21.92;53.39
59154;BME280;44935;48.944;9.418;2023-07-24T11:27:13;97835.52;;;21.46;55.24
59154;BME280;44935;48.944;9.418;2023-07-24T11:29:41;97823.29;;;21.07;55.78
59154;BME280;44935;48.944;9.418;2023-07-24T11:32:08;97810.64;;;20.84;55.67
59154;BME280;44935;48.944;9.418;2023-07-24T11:34:36;97786.22;;;20.34;57.15
59154;BME280;44935;48.944;9.418;2023-07-24T11:37:04;97781.11;;;20.63;56.60
59154;BME280;44935;48.944;9.418;2023-07-24T11:39:31;97779.75;;;20.69;56.95
59154;BME280;44935;48.944;9.418;2023-07-24T11:42:00;97771.30;;;20.65;56.81
59154;BME280;44935;48.944;9.418;2023-07-24T11:44:28;97759.80;;;19.98;59.22
59154;BME280;44935;48.944;9.418;2023-07-24T11:47:04;97738.35;;;20.40;57.45
59154;BME280;44935;48.944;9.418;2023-07-24T11:49:32;97701.65;;;19.98;58.06
59154;BME280;44935;48.944;9.418;2023-07-24T11:52:01;97709.08;;;19.67;59.82
59154;BME280;44935;48.944;9.418;2023-07-24T11:54:28;97738.66;;;21.55;56.11
59154;BME280;44935;48.944;9.418;2023-07-24T11:56:56;97750.49;;;20.78;56.92
59154;BME280;44935;48.944;9.418;2023-07-24T11:59:24;97758.74;;;21.11;56.86
59154;BME280;44935;48.944;9.418;2023-07-24T12:01:52;97754.17;;;20.77;58.91
59154;BME280;44935;48.944;9.418;2023-07-24T12:04:20;97745.08;;;20.95;58.47
59154;BME280;44935;48.944;9.418;2023-07-24T12:06:48;97757.53;;;21.35;57.18
59154;BME280;44935;48.944;9.418;2023-07-24T12:09:15;97762.50;;;21.51;56.24
59154;BME280;44935;48.944;9.418;2023-07-24T12:11:43;97763.74;;;22.15;53.66
59154;BME280;44935;48.944;9.418;2023-07-24T12:14:10;97773.72;;;22.59;53.28
59154;BME280;44935;48.944;9.418;2023-07-24T12:16:38;97765.73;;;22.45;51.89
59154;BME280;44935;48.944;9.418;2023-07-24T12:19:05;97762.65;;;22.71;51.26
59154;BME280;44935;48.944;9.418;2023-07-24T12:21:32;97766.75;;;22.29;51.89
59154;BME280;44935;48.944;9.418;2023-07-24T12:23:59;97758.67;;;21.50;52.42
59154;BME280;44935;48.944;9.418;2023-07-24T12:26:26;97772.95;;;22.14;53.10
59154;BME280;44935;48.944;9.418;2023-07-24T12:28:53;97779.05;;;21.29;53.87
59154;BME280;44935;48.944;9.418;2023-07-24T12:31:19;97776.61;;;20.75;54.59
59154;BME280;44935;48.944;9.418;2023-07-24T12:33:46;97784.27;;;21.29;53.78
59154;BME280;44935;48.944;9.418;2023-07-24T12:36:13;97784.73;;;21.35;53.15
59154;BME280;44935;48.944;9.418;2023-07-24T12:38:40;97796.04;;;21.58;53.23
59154;BME280;44935;48.944;9.418;2023-07-24T12:41:07;97805.42;;;21.23;54.50
59154;BME280;44935;48.944;9.418;2023-07-24T12:43:34;97801.50;;;20.95;54.08
59154;BME280;44935;48.944;9.418;2023-07-24T12:46:01;97799.56;;;21.20;54.05
59154;BME280;44935;48.944;9.418;2023-07-24T12:48:28;97793.58;;;21.28;53.61
59154;BME280;44935;48.944;9.418;2023-07-24T12:50:55;97809.04;;;21.01;54.79
59154;BME280;44935;48.944;9.418;2023-07-24T12:53:22;97796.80;;;21.33;53.91
59154;BME280;44935;48.944;9.418;2023-07-24T12:55:49;97788.71;;;21.77;53.62
59154;BME280;44935;48.944;9.418;2023-07-24T12:58:17;97784.59;;;21.40;53.90
59154;BME280;44935;48.944;9.418;2023-07-24T13:00:43;97783.51;;;22.02;52.18
59154;BME280;44935;48.944;9.418;2023-07-24T13:03:10;97766.53;;;21.63;52.32